sensor_id;sensor_type;location;lat;lon;timestamp;P1;durP1;ratioP1;P2;durP2;ratioP2
64615;SDS011;51027;42.162;24.754;2022-12-18T00:01:29;36.47;;;19.23;;
64615;SDS011;51027;42.162;24.754;2022-12-18T00:04:01;35.28;;;19.67;;
64615;SDS011;51027;42.162;24.754;2022-12-18T00:06:28;38.47;;;20.45;;
64615;SDS011;51027;42.162;24.754;2022-12-18T00:08:55;38.75;;;20.65;;
64615;SDS011;51027;42.162;24.754;2022-12-18T00:11:23;38.67;;;20.33;;
64615;SDS011;51027;42.162;24.754;2022-12-18T00:13:50;39.15;;;19.80;;
64615;SDS011;51027;42.162;24.754;2022-12-18T00:16:17;41.42;;;19.85;;
64615;SDS011;51027;42.162;24.754;2022-12-18T00:18:45;37.83;;;21.02;;
64615;SDS011;51027;42.162;24.754;2022-12-18T00:21:12;38.55;;;22.13;;
64615;SDS011;51027;42.162;24.754;2022-12-18T00:23:39;42.58;;;22.67;;
64615;SDS011;51027;42.162;24.754;2022-12-18T00:26:09;43.00;;;24.05;;
64615;SDS011;51027;42.162;24.754;2022-12-18T00:28:36;42.28;;;23.25;;
64615;SDS011;51027;42.162;24.754;2022-12-18T00:31:02;36.28;;;21.38;;
64615;SDS011;51027;42.162;24.754;2022-12-18T00:33:32;38.63;;;20.33;;
64615;SDS011;51027;42.162;24.754;2022-12-18T00:36:04;37.78;;;19.95;;
64615;SDS011;51027;42.162;24.754;2022-12-18T00:38:32;34.85;;;16.85;;
64615;SDS011;51027;42.162;24.754;2022-12-18T00:40:58;31.13;;;17.38;;
64615;SDS011;51027;42.162;24.754;2022-12-18T00:43:24;39.08;;;18.95;;
64615;SDS011;51027;42.162;24.754;2022-12-18T00:45:49;34.38;;;17.60;;
64615;SDS011;51027;42.162;24.754;2022-12-18T00:48:15;36.05;;;19.67;;
64615;SDS011;51027;42.162;24.754;2022-12-18T00:50:40;38.65;;;21.08;;
64615;SDS011;51027;42.162;24.754;2022-12-18T00:53:05;38.53;;;20.17;;
64615;SDS011;51027;42.162;24.754;2022-12-18T00:55:31;40.67;;;21.15;;
64615;SDS011;51027;42.162;24.754;2022-12-18T00:57:56;40.63;;;21.73;;
64615;SDS011;51027;42.162;24.754;2022-12-18T01:00:22;40.13;;;20.35;;
64615;SDS011;51027;42.162;24.754;2022-12-18T01:02:47;39.63;;;19.75;;
64615;SDS011;51027;42.162;24.754;2022-12-18T01:05:13;37.70;;;19.75;;
64615;SDS011;51027;42.162;24.754;2022-12-18T01:07:39;37.50;;;20.00;;
64615;SDS011;51027;42.162;24.754;2022-12-18T01:10:05;39.70;;;20.40;;
64615;SDS011;51027;42.162;24.754;2022-12-18T01:12:32;41.35;;;21.25;;
64615;SDS011;51027;42.162;24.754;2022-12-18T01:14:58;45.45;;;24.23;;
64615;SDS011;51027;42.162;24.754;2022-12-18T01:17:23;43.13;;;22.23;;
64615;SDS011;51027;42.162;24.754;2022-12-18T01:19:49;39.58;;;20.65;;
64615;SDS011;51027;42.162;24.754;2022-12-18T01:22:14;40.30;;;20.73;;
64615;SDS011;51027;42.162;24.754;2022-12-18T01:24:40;39.95;;;21.58;;
64615;SDS011;51027;42.162;24.754;2022-12-18T01:27:05;39.03;;;20.15;;
64615;SDS011;51027;42.162;24.754;2022-12-18T01:29:31;38.15;;;20.50;;
64615;SDS011;51027;42.162;24.754;2022-12-18T01:31:56;37.45;;;19.77;;
64615;SDS011;51027;42.162;24.754;2022-12-18T01:34:22;40.38;;;21.90;;
64615;SDS011;51027;42.162;24.754;2022-12-18T01:36:48;40.83;;;19.85;;
64615;SDS011;51027;42.162;24.754;2022-12-18T01:39:14;38.38;;;20.05;;
64615;SDS011;51027;42.162;24.754;2022-12-18T01:41:40;37.20;;;20.15;;
64615;SDS011;51027;42.162;24.754;2022-12-18T01:50:13;36.15;;;19.27;;
64615;SDS011;51027;42.162;24.754;2022-12-18T01:52:38;41.03;;;21.65;;
64615;SDS011;51027;42.162;24.754;2022-12-18T01:55:10;38.95;;;20.17;;
64615;SDS011;51027;42.162;24.754;2022-12-18T01:57:37;40.28;;;21.33;;
64615;SDS011;51027;42.162;24.754;2022-12-18T02:00:05;44.63;;;21.13;;
64615;SDS011;51027;42.162;24.754;2022-12-18T02:02:37;35.83;;;19.45;;
64615;SDS011;51027;42.162;24.754;2022-12-18T02:05:03;34.88;;;18.10;;
64615;SDS011;51027;42.162;24.754;2022-12-18T02:07:42;36.17;;;18.35;;
64615;SDS011;51027;42.162;24.754;2022-12-18T02:10:29;34.97;;;17.60;;
64615;SDS011;51027;42.162;24.754;2022-12-18T02:18:40;32.42;;;16.00;;
64615;SDS011;51027;42.162;24.754;2022-12-18T02:21:32;31.20;;;15.30;;
64615;SDS011;51027;42.162;24.754;2022-12-18T02:27:01;26.48;;;13.43;;
64615;SDS011;51027;42.162;24.754;2022-12-18T02:29:32;31.67;;;16.33;;
64615;SDS011;51027;42.162;24.754;2022-12-18T02:32:02;30.17;;;15.88;;
64615;SDS011;51027;42.162;24.754;2022-12-18T02:34:31;31.42;;;15.88;;
64615;SDS011;51027;42.162;24.754;2022-12-18T02:37:00;29.02;;;15.38;;
64615;SDS011;51027;42.162;24.754;2022-12-18T02:39:30;28.35;;;14.63;;
64615;SDS011;51027;42.162;24.754;2022-12-18T02:41:59;30.60;;;13.88;;
64615;SDS011;51027;42.162;24.754;2022-12-18T02:44:32;26.42;;;12.73;;
64615;SDS011;51027;42.162;24.754;2022-12-18T02:46:58;30.02;;;14.20;;
64615;SDS011;51027;42.162;24.754;2022-12-18T02:49:33;28.75;;;13.07;;
64615;SDS011;51027;42.162;24.754;2022-12-18T03:01:09;28.67;;;14.65;;
64615;SDS011;51027;42.162;24.754;2022-12-18T03:04:04;29.65;;;14.30;;
64615;SDS011;51027;42.162;24.754;2022-12-18T03:06:42;28.38;;;14.95;;
64615;SDS011;51027;42.162;24.754;2022-12-18T03:09:21;28.10;;;14.60;;
64615;SDS011;51027;42.162;24.754;2022-12-18T03:11:58;30.13;;;14.32;;
64615;SDS011;51027;42.162;24.754;2022-12-18T03:15:01;29.00;;;13.80;;
64615;SDS011;51027;42.162;24.754;2022-12-18T03:17:30;26.63;;;13.68;;
64615;SDS011;51027;42.162;24.754;2022-12-18T03:19:58;25.90;;;12.70;;
64615;SDS011;51027;42.162;24.754;2022-12-18T03:22:29;24.10;;;10.70;;
64615;SDS011;51027;42.162;24.754;2022-12-18T03:24:57;22.52;;;10.95;;
64615;SDS011;51027;42.162;24.754;2022-12-18T03:27:25;26.58;;;10.63;;
64615;SDS011;51027;42.162;24.754;2022-12-18T03:29:53;23.58;;;11.40;;
64615;SDS011;51027;42.162;24.754;2022-12-18T03:32:39;25.50;;;12.35;;
64615;SDS011;51027;42.162;24.754;2022-12-18T03:35:06;25.60;;;11.85;;
64615;SDS011;51027;42.162;24.754;2022-12-18T03:37:35;26.13;;;11.88;;
64615;SDS011;51027;42.162;24.754;2022-12-18T03:40:01;26.65;;;12.23;;
64615;SDS011;51027;42.162;24.754;2022-12-18T03:42:47;27.77;;;11.88;;
64615;SDS011;51027;42.162;24.754;2022-12-18T03:45:22;25.25;;;11.57;;
64615;SDS011;51027;42.162;24.754;2022-12-18T03:47:59;22.77;;;10.50;;
64615;SDS011;51027;42.162;24.754;2022-12-18T03:51:16;25.48;;;11.25;;
64615;SDS011;51027;42.162;24.754;2022-12-18T03:56:14;25.50;;;11.43;;
64615;SDS011;51027;42.162;24.754;2022-12-18T03:58:42;27.48;;;10.85;;
64615;SDS011;51027;42.162;24.754;2022-12-18T04:01:08;23.45;;;10.05;;
64615;SDS011;51027;42.162;24.754;2022-12-18T04:03:37;22.02;;;10.63;;
64615;SDS011;51027;42.162;24.754;2022-12-18T04:06:03;19.75;;;9.05;;
64615;SDS011;51027;42.162;24.754;2022-12-18T04:08:30;20.10;;;8.40;;
64615;SDS011;51027;42.162;24.754;2022-12-18T04:10:55;23.80;;;9.15;;
64615;SDS011;51027;42.162;24.754;2022-12-18T04:13:21;21.55;;;8.48;;
64615;SDS011;51027;42.162;24.754;2022-12-18T04:15:48;21.13;;;9.30;;
64615;SDS011;51027;42.162;24.754;2022-12-18T04:18:13;21.17;;;8.88;;
64615;SDS011;51027;42.162;24.754;2022-12-18T04:20:39;20.52;;;8.55;;
64615;SDS011;51027;42.162;24.754;2022-12-18T04:23:04;20.15;;;9.13;;
64615;SDS011;51027;42.162;24.754;2022-12-18T04:25:29;18.27;;;7.43;;
64615;SDS011;51027;42.162;24.754;2022-12-18T04:27:55;19.20;;;7.53;;
64615;SDS011;51027;42.162;24.754;2022-12-18T04:30:20;19.75;;;8.15;;
64615;SDS011;51027;42.162;24.754;2022-12-18T04:32:46;19.55;;;7.43;;
64615;SDS011;51027;42.162;24.754;2022-12-18T04:35:11;20.20;;;8.27;;
64615;SDS011;51027;42.162;24.754;2022-12-18T04:37:37;19.08;;;8.18;;
64615;SDS011;51027;42.162;24.754;2022-12-18T04:40:02;21.15;;;7.45;;
64615;SDS011;51027;42.162;24.754;2022-12-18T04:42:28;21.83;;;7.35;;
64615;SDS011;51027;42.162;24.754;2022-12-18T04:44:53;18.17;;;6.00;;
64615;SDS011;51027;42.162;24.754;2022-12-18T04:47:19;16.35;;;6.15;;
64615;SDS011;51027;42.162;24.754;2022-12-18T04:49:44;15.77;;;5.13;;
64615;SDS011;51027;42.162;24.754;2022-12-18T04:52:10;16.73;;;5.50;;
64615;SDS011;51027;42.162;24.754;2022-12-18T04:54:35;17.05;;;6.43;;
64615;SDS011;51027;42.162;24.754;2022-12-18T04:57:00;15.23;;;5.68;;
64615;SDS011;51027;42.162;24.754;2022-12-18T04:59:26;13.85;;;5.28;;
64615;SDS011;51027;42.162;24.754;2022-12-18T05:01:51;15.68;;;6.15;;
64615;SDS011;51027;42.162;24.754;2022-12-18T05:04:16;14.23;;;5.03;;
64615;SDS011;51027;42.162;24.754;2022-12-18T05:06:42;15.45;;;5.60;;
64615;SDS011;51027;42.162;24.754;2022-12-18T05:09:07;14.55;;;5.20;;
64615;SDS011;51027;42.162;24.754;2022-12-18T05:11:36;13.13;;;4.70;;
64615;SDS011;51027;42.162;24.754;2022-12-18T05:14:01;15.75;;;5.70;;
64615;SDS011;51027;42.162;24.754;2022-12-18T05:16:27;14.98;;;4.95;;
64615;SDS011;51027;42.162;24.754;2022-12-18T05:18:52;15.15;;;5.35;;
64615;SDS011;51027;42.162;24.754;2022-12-18T05:21:18;11.65;;;4.20;;
64615;SDS011;51027;42.162;24.754;2022-12-18T05:23:43;17.45;;;6.00;;
64615;SDS011;51027;42.162;24.754;2022-12-18T05:26:08;12.95;;;5.15;;
64615;SDS011;51027;42.162;24.754;2022-12-18T05:28:39;12.57;;;4.60;;
64615;SDS011;51027;42.162;24.754;2022-12-18T05:31:05;16.60;;;5.88;;
64615;SDS011;51027;42.162;24.754;2022-12-18T05:33:31;13.60;;;4.80;;
64615;SDS011;51027;42.162;24.754;2022-12-18T05:36:03;14.38;;;4.95;;
64615;SDS011;51027;42.162;24.754;2022-12-18T05:38:30;16.00;;;5.55;;
64615;SDS011;51027;42.162;24.754;2022-12-18T05:40:58;14.88;;;4.88;;
64615;SDS011;51027;42.162;24.754;2022-12-18T05:43:26;15.35;;;5.28;;
64615;SDS011;51027;42.162;24.754;2022-12-18T05:45:52;13.90;;;4.45;;
64615;SDS011;51027;42.162;24.754;2022-12-18T05:48:19;15.00;;;5.13;;
64615;SDS011;51027;42.162;24.754;2022-12-18T05:50:47;16.75;;;5.22;;
64615;SDS011;51027;42.162;24.754;2022-12-18T05:53:15;14.07;;;5.03;;
64615;SDS011;51027;42.162;24.754;2022-12-18T05:55:42;12.55;;;4.45;;
64615;SDS011;51027;42.162;24.754;2022-12-18T05:58:08;13.07;;;4.55;;
64615;SDS011;51027;42.162;24.754;2022-12-18T06:00:36;12.82;;;4.50;;
64615;SDS011;51027;42.162;24.754;2022-12-18T06:03:06;12.63;;;4.35;;
64615;SDS011;51027;42.162;24.754;2022-12-18T06:05:37;12.05;;;4.15;;
64615;SDS011;51027;42.162;24.754;2022-12-18T06:08:07;16.10;;;5.28;;
64615;SDS011;51027;42.162;24.754;2022-12-18T06:10:33;12.82;;;4.22;;
64615;SDS011;51027;42.162;24.754;2022-12-18T06:12:59;10.57;;;4.32;;
64615;SDS011;51027;42.162;24.754;2022-12-18T06:15:25;13.25;;;4.43;;
64615;SDS011;51027;42.162;24.754;2022-12-18T06:17:50;12.55;;;4.03;;
64615;SDS011;51027;42.162;24.754;2022-12-18T06:20:16;13.60;;;4.60;;
64615;SDS011;51027;42.162;24.754;2022-12-18T06:22:47;15.65;;;5.05;;
64615;SDS011;51027;42.162;24.754;2022-12-18T06:25:13;18.63;;;5.88;;
64615;SDS011;51027;42.162;24.754;2022-12-18T06:27:38;11.68;;;3.90;;
64615;SDS011;51027;42.162;24.754;2022-12-18T06:30:05;15.13;;;5.22;;
64615;SDS011;51027;42.162;24.754;2022-12-18T06:32:35;14.30;;;4.78;;
64615;SDS011;51027;42.162;24.754;2022-12-18T06:35:04;15.45;;;5.60;;
64615;SDS011;51027;42.162;24.754;2022-12-18T06:37:30;15.27;;;5.25;;
64615;SDS011;51027;42.162;24.754;2022-12-18T06:39:56;16.67;;;5.70;;
64615;SDS011;51027;42.162;24.754;2022-12-18T06:42:22;17.58;;;6.10;;
64615;SDS011;51027;42.162;24.754;2022-12-18T06:44:48;16.65;;;6.05;;
64615;SDS011;51027;42.162;24.754;2022-12-18T06:47:13;14.88;;;5.63;;
64615;SDS011;51027;42.162;24.754;2022-12-18T06:49:38;15.25;;;5.35;;
64615;SDS011;51027;42.162;24.754;2022-12-18T06:52:04;15.02;;;5.38;;
64615;SDS011;51027;42.162;24.754;2022-12-18T06:54:29;12.30;;;4.82;;
64615;SDS011;51027;42.162;24.754;2022-12-18T06:56:55;16.13;;;5.47;;
64615;SDS011;51027;42.162;24.754;2022-12-18T06:59:20;15.07;;;5.47;;
64615;SDS011;51027;42.162;24.754;2022-12-18T07:01:45;15.38;;;5.75;;
64615;SDS011;51027;42.162;24.754;2022-12-18T07:04:11;16.85;;;6.30;;
64615;SDS011;51027;42.162;24.754;2022-12-18T07:06:36;16.38;;;6.43;;
64615;SDS011;51027;42.162;24.754;2022-12-18T07:09:02;16.63;;;5.85;;
64615;SDS011;51027;42.162;24.754;2022-12-18T07:11:27;18.40;;;6.20;;
64615;SDS011;51027;42.162;24.754;2022-12-18T07:13:53;20.65;;;7.47;;
64615;SDS011;51027;42.162;24.754;2022-12-18T07:16:21;17.75;;;6.47;;
64615;SDS011;51027;42.162;24.754;2022-12-18T07:18:47;15.30;;;5.65;;
64615;SDS011;51027;42.162;24.754;2022-12-18T07:21:14;16.60;;;5.97;;
64615;SDS011;51027;42.162;24.754;2022-12-18T07:23:41;16.88;;;5.70;;
64615;SDS011;51027;42.162;24.754;2022-12-18T07:26:08;16.17;;;6.22;;
64615;SDS011;51027;42.162;24.754;2022-12-18T07:28:37;16.50;;;6.45;;
64615;SDS011;51027;42.162;24.754;2022-12-18T07:31:03;14.35;;;5.32;;
64615;SDS011;51027;42.162;24.754;2022-12-18T07:33:31;18.48;;;7.05;;
64615;SDS011;51027;42.162;24.754;2022-12-18T07:35:58;19.63;;;7.25;;
64615;SDS011;51027;42.162;24.754;2022-12-18T07:38:24;17.67;;;6.40;;
64615;SDS011;51027;42.162;24.754;2022-12-18T07:40:49;15.65;;;5.50;;
64615;SDS011;51027;42.162;24.754;2022-12-18T07:43:14;16.60;;;6.30;;
64615;SDS011;51027;42.162;24.754;2022-12-18T07:45:40;16.67;;;6.57;;
64615;SDS011;51027;42.162;24.754;2022-12-18T07:48:06;18.75;;;6.10;;
64615;SDS011;51027;42.162;24.754;2022-12-18T07:50:32;16.63;;;6.32;;
64615;SDS011;51027;42.162;24.754;2022-12-18T07:52:57;17.55;;;6.50;;
64615;SDS011;51027;42.162;24.754;2022-12-18T07:55:23;20.98;;;7.75;;
64615;SDS011;51027;42.162;24.754;2022-12-18T07:57:48;18.77;;;7.28;;
64615;SDS011;51027;42.162;24.754;2022-12-18T08:00:14;13.98;;;5.22;;
64615;SDS011;51027;42.162;24.754;2022-12-18T08:02:40;15.10;;;5.28;;
64615;SDS011;51027;42.162;24.754;2022-12-18T08:05:06;19.67;;;6.78;;
64615;SDS011;51027;42.162;24.754;2022-12-18T08:07:31;15.60;;;6.32;;
64615;SDS011;51027;42.162;24.754;2022-12-18T08:09:57;16.95;;;6.63;;
64615;SDS011;51027;42.162;24.754;2022-12-18T08:12:22;18.30;;;6.57;;
64615;SDS011;51027;42.162;24.754;2022-12-18T08:14:47;16.50;;;5.97;;
64615;SDS011;51027;42.162;24.754;2022-12-18T08:17:13;18.13;;;6.70;;
64615;SDS011;51027;42.162;24.754;2022-12-18T08:19:38;15.85;;;6.15;;
64615;SDS011;51027;42.162;24.754;2022-12-18T08:22:04;16.08;;;5.40;;
64615;SDS011;51027;42.162;24.754;2022-12-18T08:24:30;20.63;;;8.77;;
64615;SDS011;51027;42.162;24.754;2022-12-18T08:26:55;20.17;;;7.68;;
64615;SDS011;51027;42.162;24.754;2022-12-18T08:29:22;21.10;;;7.30;;
64615;SDS011;51027;42.162;24.754;2022-12-18T08:31:47;17.67;;;7.47;;
64615;SDS011;51027;42.162;24.754;2022-12-18T08:34:13;17.88;;;7.22;;
64615;SDS011;51027;42.162;24.754;2022-12-18T08:36:42;17.83;;;8.02;;
64615;SDS011;51027;42.162;24.754;2022-12-18T08:39:07;15.45;;;6.35;;
64615;SDS011;51027;42.162;24.754;2022-12-18T08:41:33;19.35;;;6.72;;
64615;SDS011;51027;42.162;24.754;2022-12-18T08:43:58;18.48;;;6.68;;
64615;SDS011;51027;42.162;24.754;2022-12-18T08:46:42;18.25;;;6.50;;
64615;SDS011;51027;42.162;24.754;2022-12-18T08:49:09;16.50;;;6.05;;
64615;SDS011;51027;42.162;24.754;2022-12-18T08:51:36;18.33;;;6.80;;
64615;SDS011;51027;42.162;24.754;2022-12-18T08:54:02;16.27;;;6.50;;
64615;SDS011;51027;42.162;24.754;2022-12-18T08:56:29;18.02;;;6.32;;
64615;SDS011;51027;42.162;24.754;2022-12-18T08:58:58;16.77;;;6.80;;
64615;SDS011;51027;42.162;24.754;2022-12-18T09:01:23;17.67;;;7.30;;
64615;SDS011;51027;42.162;24.754;2022-12-18T09:03:49;16.05;;;6.28;;
64615;SDS011;51027;42.162;24.754;2022-12-18T09:06:16;18.30;;;6.88;;
64615;SDS011;51027;42.162;24.754;2022-12-18T09:08:43;23.38;;;7.18;;
64615;SDS011;51027;42.162;24.754;2022-12-18T09:11:19;19.88;;;7.93;;
64615;SDS011;51027;42.162;24.754;2022-12-18T09:13:47;16.60;;;6.45;;
64615;SDS011;51027;42.162;24.754;2022-12-18T09:16:13;12.60;;;5.20;;
64615;SDS011;51027;42.162;24.754;2022-12-18T09:18:38;18.25;;;7.30;;
64615;SDS011;51027;42.162;24.754;2022-12-18T09:21:09;19.27;;;7.70;;
64615;SDS011;51027;42.162;24.754;2022-12-18T09:23:40;16.70;;;6.88;;
64615;SDS011;51027;42.162;24.754;2022-12-18T09:26:06;18.98;;;8.00;;
64615;SDS011;51027;42.162;24.754;2022-12-18T09:28:32;21.15;;;7.30;;
64615;SDS011;51027;42.162;24.754;2022-12-18T09:30:58;18.17;;;6.80;;
64615;SDS011;51027;42.162;24.754;2022-12-18T09:33:23;20.27;;;7.15;;
64615;SDS011;51027;42.162;24.754;2022-12-18T09:35:49;21.13;;;8.05;;
64615;SDS011;51027;42.162;24.754;2022-12-18T09:38:15;18.10;;;7.50;;
64615;SDS011;51027;42.162;24.754;2022-12-18T09:40:53;18.88;;;6.97;;
64615;SDS011;51027;42.162;24.754;2022-12-18T09:46:23;15.48;;;5.47;;
64615;SDS011;51027;42.162;24.754;2022-12-18T09:48:54;17.38;;;7.07;;
64615;SDS011;51027;42.162;24.754;2022-12-18T09:51:30;17.23;;;6.55;;
64615;SDS011;51027;42.162;24.754;2022-12-18T09:54:04;19.15;;;6.82;;
64615;SDS011;51027;42.162;24.754;2022-12-18T09:56:36;15.23;;;5.20;;
64615;SDS011;51027;42.162;24.754;2022-12-18T09:59:05;19.02;;;7.18;;
64615;SDS011;51027;42.162;24.754;2022-12-18T10:01:31;16.30;;;7.03;;
64615;SDS011;51027;42.162;24.754;2022-12-18T10:03:57;20.33;;;8.55;;
64615;SDS011;51027;42.162;24.754;2022-12-18T10:06:29;19.80;;;7.95;;
64615;SDS011;51027;42.162;24.754;2022-12-18T10:22:48;21.15;;;7.35;;
64615;SDS011;51027;42.162;24.754;2022-12-18T10:25:31;19.57;;;7.13;;
64615;SDS011;51027;42.162;24.754;2022-12-18T10:28:20;19.73;;;7.43;;
64615;SDS011;51027;42.162;24.754;2022-12-18T10:30:47;20.02;;;8.45;;
64615;SDS011;51027;42.162;24.754;2022-12-18T10:33:17;19.25;;;7.70;;
64615;SDS011;51027;42.162;24.754;2022-12-18T10:35:44;18.42;;;7.78;;
64615;SDS011;51027;42.162;24.754;2022-12-18T10:40:53;16.60;;;6.13;;
64615;SDS011;51027;42.162;24.754;2022-12-18T10:44:10;17.77;;;7.35;;
64615;SDS011;51027;42.162;24.754;2022-12-18T10:46:35;16.42;;;5.53;;
64615;SDS011;51027;42.162;24.754;2022-12-18T10:49:01;20.25;;;7.18;;
64615;SDS011;51027;42.162;24.754;2022-12-18T10:51:30;19.02;;;7.07;;
64615;SDS011;51027;42.162;24.754;2022-12-18T10:56:29;19.00;;;6.90;;
64615;SDS011;51027;42.162;24.754;2022-12-18T11:01:24;17.15;;;6.30;;
64615;SDS011;51027;42.162;24.754;2022-12-18T11:06:16;17.60;;;6.68;;
64615;SDS011;51027;42.162;24.754;2022-12-18T11:08:46;19.95;;;8.18;;
64615;SDS011;51027;42.162;24.754;2022-12-18T11:11:24;18.42;;;7.72;;
64615;SDS011;51027;42.162;24.754;2022-12-18T11:13:57;19.70;;;7.00;;
64615;SDS011;51027;42.162;24.754;2022-12-18T11:16:24;13.95;;;5.25;;
64615;SDS011;51027;42.162;24.754;2022-12-18T11:18:50;15.30;;;5.90;;
64615;SDS011;51027;42.162;24.754;2022-12-18T11:21:15;19.67;;;7.13;;
64615;SDS011;51027;42.162;24.754;2022-12-18T11:23:50;14.93;;;5.10;;
64615;SDS011;51027;42.162;24.754;2022-12-18T11:26:17;18.58;;;7.78;;
64615;SDS011;51027;42.162;24.754;2022-12-18T11:28:47;21.40;;;7.47;;
64615;SDS011;51027;42.162;24.754;2022-12-18T11:31:18;19.00;;;8.75;;
64615;SDS011;51027;42.162;24.754;2022-12-18T11:36:28;17.10;;;7.68;;
64615;SDS011;51027;42.162;24.754;2022-12-18T11:38:57;18.00;;;7.97;;
64615;SDS011;51027;42.162;24.754;2022-12-18T11:42:04;18.13;;;7.15;;
64615;SDS011;51027;42.162;24.754;2022-12-18T11:44:51;22.83;;;8.68;;
64615;SDS011;51027;42.162;24.754;2022-12-18T11:50:12;23.92;;;8.65;;
64615;SDS011;51027;42.162;24.754;2022-12-18T11:52:41;23.65;;;9.25;;
64615;SDS011;51027;42.162;24.754;2022-12-18T11:55:14;21.17;;;8.20;;
64615;SDS011;51027;42.162;24.754;2022-12-18T12:00:20;19.35;;;8.30;;
64615;SDS011;51027;42.162;24.754;2022-12-18T12:10:53;21.25;;;8.82;;
64615;SDS011;51027;42.162;24.754;2022-12-18T12:18:27;25.08;;;10.95;;
64615;SDS011;51027;42.162;24.754;2022-12-18T12:27:15;23.77;;;9.38;;
64615;SDS011;51027;42.162;24.754;2022-12-18T12:40:48;28.50;;;12.73;;
64615;SDS011;51027;42.162;24.754;2022-12-18T12:51:04;26.40;;;11.27;;
64615;SDS011;51027;42.162;24.754;2022-12-18T12:53:36;22.63;;;10.35;;
64615;SDS011;51027;42.162;24.754;2022-12-18T12:56:04;23.98;;;9.50;;
64615;SDS011;51027;42.162;24.754;2022-12-18T12:58:36;24.42;;;8.45;;
64615;SDS011;51027;42.162;24.754;2022-12-18T13:03:55;23.98;;;10.57;;
64615;SDS011;51027;42.162;24.754;2022-12-18T13:09:20;21.23;;;8.50;;
64615;SDS011;51027;42.162;24.754;2022-12-18T13:11:46;21.33;;;9.00;;
64615;SDS011;51027;42.162;24.754;2022-12-18T13:14:32;21.08;;;9.45;;
64615;SDS011;51027;42.162;24.754;2022-12-18T13:20:02;19.48;;;8.18;;
64615;SDS011;51027;42.162;24.754;2022-12-18T13:22:30;21.52;;;8.60;;
64615;SDS011;51027;42.162;24.754;2022-12-18T13:25:03;21.60;;;8.95;;
64615;SDS011;51027;42.162;24.754;2022-12-18T13:35:39;21.13;;;9.07;;
64615;SDS011;51027;42.162;24.754;2022-12-18T13:51:53;21.02;;;8.10;;
64615;SDS011;51027;42.162;24.754;2022-12-18T13:56:58;21.83;;;8.63;;
64615;SDS011;51027;42.162;24.754;2022-12-18T13:59:24;22.92;;;10.65;;
64615;SDS011;51027;42.162;24.754;2022-12-18T14:01:55;24.60;;;10.10;;
64615;SDS011;51027;42.162;24.754;2022-12-18T14:04:32;26.70;;;11.70;;
64615;SDS011;51027;42.162;24.754;2022-12-18T14:07:07;18.75;;;7.80;;
64615;SDS011;51027;42.162;24.754;2022-12-18T14:09:42;20.58;;;8.82;;
64615;SDS011;51027;42.162;24.754;2022-12-18T14:12:29;23.35;;;10.77;;
64615;SDS011;51027;42.162;24.754;2022-12-18T14:18:02;24.35;;;10.05;;
64615;SDS011;51027;42.162;24.754;2022-12-18T14:20:29;23.13;;;11.43;;
64615;SDS011;51027;42.162;24.754;2022-12-18T14:22:57;26.30;;;11.77;;
64615;SDS011;51027;42.162;24.754;2022-12-18T14:25:25;27.55;;;12.07;;
64615;SDS011;51027;42.162;24.754;2022-12-18T14:30:39;24.77;;;11.52;;
64615;SDS011;51027;42.162;24.754;2022-12-18T14:33:10;23.52;;;9.90;;
64615;SDS011;51027;42.162;24.754;2022-12-18T14:35:56;23.13;;;9.30;;
64615;SDS011;51027;42.162;24.754;2022-12-18T14:41:12;22.73;;;10.32;;
64615;SDS011;51027;42.162;24.754;2022-12-18T14:43:39;16.73;;;6.70;;
64615;SDS011;51027;42.162;24.754;2022-12-18T14:49:03;20.85;;;7.93;;
64615;SDS011;51027;42.162;24.754;2022-12-18T14:51:31;17.85;;;8.32;;
64615;SDS011;51027;42.162;24.754;2022-12-18T14:54:03;19.25;;;6.95;;
64615;SDS011;51027;42.162;24.754;2022-12-18T14:56:44;21.25;;;7.70;;
64615;SDS011;51027;42.162;24.754;2022-12-18T15:01:58;15.32;;;6.40;;
64615;SDS011;51027;42.162;24.754;2022-12-18T15:07:06;21.52;;;9.60;;
64615;SDS011;51027;42.162;24.754;2022-12-18T15:15:04;21.02;;;8.43;;
64615;SDS011;51027;42.162;24.754;2022-12-18T15:17:30;21.35;;;7.90;;
64615;SDS011;51027;42.162;24.754;2022-12-18T15:20:00;21.95;;;9.10;;
64615;SDS011;51027;42.162;24.754;2022-12-18T15:22:34;24.17;;;10.55;;
64615;SDS011;51027;42.162;24.754;2022-12-18T15:25:01;23.38;;;9.98;;
64615;SDS011;51027;42.162;24.754;2022-12-18T15:27:45;24.13;;;11.27;;
64615;SDS011;51027;42.162;24.754;2022-12-18T15:30:22;27.85;;;12.65;;
64615;SDS011;51027;42.162;24.754;2022-12-18T15:32:49;31.23;;;14.52;;
64615;SDS011;51027;42.162;24.754;2022-12-18T15:35:17;25.85;;;12.82;;
64615;SDS011;51027;42.162;24.754;2022-12-18T15:37:45;29.00;;;12.63;;
64615;SDS011;51027;42.162;24.754;2022-12-18T15:40:14;30.08;;;12.90;;
64615;SDS011;51027;42.162;24.754;2022-12-18T15:42:42;33.83;;;14.27;;
64615;SDS011;51027;42.162;24.754;2022-12-18T15:45:27;27.33;;;12.48;;
64615;SDS011;51027;42.162;24.754;2022-12-18T15:47:53;30.77;;;14.48;;
64615;SDS011;51027;42.162;24.754;2022-12-18T15:50:19;32.25;;;14.52;;
64615;SDS011;51027;42.162;24.754;2022-12-18T15:52:45;33.50;;;15.15;;
64615;SDS011;51027;42.162;24.754;2022-12-18T15:55:22;29.80;;;13.48;;
64615;SDS011;51027;42.162;24.754;2022-12-18T15:58:07;26.67;;;12.23;;
64615;SDS011;51027;42.162;24.754;2022-12-18T16:00:35;27.15;;;12.13;;
64615;SDS011;51027;42.162;24.754;2022-12-18T16:03:02;27.00;;;12.00;;
64615;SDS011;51027;42.162;24.754;2022-12-18T16:05:28;24.63;;;10.20;;
64615;SDS011;51027;42.162;24.754;2022-12-18T16:07:54;21.52;;;8.90;;
64615;SDS011;51027;42.162;24.754;2022-12-18T16:10:20;22.73;;;9.82;;
64615;SDS011;51027;42.162;24.754;2022-12-18T16:12:45;23.13;;;8.55;;
64615;SDS011;51027;42.162;24.754;2022-12-18T16:15:14;22.67;;;8.80;;
64615;SDS011;51027;42.162;24.754;2022-12-18T16:17:41;21.35;;;9.35;;
64615;SDS011;51027;42.162;24.754;2022-12-18T16:20:14;20.50;;;8.93;;
64615;SDS011;51027;42.162;24.754;2022-12-18T16:22:41;17.42;;;7.63;;
64615;SDS011;51027;42.162;24.754;2022-12-18T16:25:16;23.23;;;9.32;;
64615;SDS011;51027;42.162;24.754;2022-12-18T16:27:43;21.52;;;8.18;;
64615;SDS011;51027;42.162;24.754;2022-12-18T16:30:13;21.35;;;7.97;;
64615;SDS011;51027;42.162;24.754;2022-12-18T16:32:40;22.38;;;8.90;;
64615;SDS011;51027;42.162;24.754;2022-12-18T16:35:05;26.23;;;10.00;;
64615;SDS011;51027;42.162;24.754;2022-12-18T16:37:33;19.48;;;7.75;;
64615;SDS011;51027;42.162;24.754;2022-12-18T16:39:58;21.05;;;9.13;;
64615;SDS011;51027;42.162;24.754;2022-12-18T16:42:24;20.65;;;7.78;;
64615;SDS011;51027;42.162;24.754;2022-12-18T16:44:49;16.45;;;6.93;;
64615;SDS011;51027;42.162;24.754;2022-12-18T16:47:15;18.63;;;7.28;;
64615;SDS011;51027;42.162;24.754;2022-12-18T16:49:41;17.35;;;7.35;;
64615;SDS011;51027;42.162;24.754;2022-12-18T16:52:09;18.48;;;6.32;;
64615;SDS011;51027;42.162;24.754;2022-12-18T16:54:34;20.17;;;7.93;;
64615;SDS011;51027;42.162;24.754;2022-12-18T16:57:00;20.38;;;7.93;;
64615;SDS011;51027;42.162;24.754;2022-12-18T16:59:26;19.85;;;8.43;;
64615;SDS011;51027;42.162;24.754;2022-12-18T17:01:52;15.52;;;6.22;;